Buoy 46562

sailwx.info

Track history (hours):
 
Tides and Currents Weather Stations Pressure Air Temp Water Temp Dewpoint Dewpoint Depression Visibility Wind Speed Wind Dir Waves Ship Positions

Drifting buoy 46562

Last reported at 2015-Apr-25 00:00 UTC. Time now 2015-Apr-25 08:46 UTC.
Position N 43°07' W 128°25'.

Water temperature 12.8 ° C

Date/timePositionNaut miles runAvg speedWind from/ knotsBaromVisibWave heightAir tempDewpointWater temp
2015-Apr-25 00:00N 43°07' W 128°25'1 0.7 12.8
2015-Apr-24 22:00N 43°07' W 128°26'1 0.2 12.7
2015-Apr-24 15:00N 43°07' W 128°28'0 0.5 12.5
2015-Apr-24 14:00N 43°07' W 128°28'4 0.3 12.5
2015-Apr-23 23:00N 43°08' W 128°34'3 0.5 12.6
2015-Apr-23 17:00N 43°10' W 128°37'0 0.0 12.4
2015-Apr-23 15:00N 43°10' W 128°37'2 0.4 12.4
2015-Apr-23 10:00N 43°10' W 128°40'1 0.2 12.4
2015-Apr-23 04:00N 43°10' W 128°41'0 0.2 12.5
2015-Apr-23 02:00N 43°10' W 128°42'0 0.5 12.5
2015-Apr-23 01:00N 43°10' W 128°42'0 0.1 12.5
2015-Apr-23 00:00N 43°10' W 128°42'3 0.4 12.5
2015-Apr-22 18:00N 43°10' W 128°45'0 0.0 12.4
2015-Apr-22 16:00N 43°10' W 128°45'1 0.4 12.4
2015-Apr-22 14:00N 43°11' W 128°45'1 0.3 12.4
2015-Apr-22 10:00N 43°11' W 128°47'1 1.0 12.4
2015-Apr-22 09:00N 43°11' W 128°46'1 0.2 12.4
2015-Apr-22 04:00N 43°11' W 128°47'0 0.1 12.4
2015-Apr-22 02:00N 43°11' W 128°47'1 0.6 12.5
2015-Apr-22 01:00N 43°11' W 128°48'0 0.0 12.5
2015-Apr-21 23:00N 43°11' W 128°48'1 0.2 12.5
2015-Apr-21 20:00N 43°12' W 128°48'0 0.2 12.5
2015-Apr-21 18:00N 43°12' W 128°49'2 0.6 12.5
2015-Apr-21 15:00N 43°13' W 128°47'2 0.4 12.5
2015-Apr-21 11:00N 43°14' W 128°48'1 1.4 12.5
2015-Apr-21 10:00N 43°13' W 128°49'1 0.2 12.5
2015-Apr-21 06:00N 43°14' W 128°48'1 0.6 12.5
2015-Apr-21 05:00N 43°14' W 128°49'0 0.0 12.5
2015-Apr-20 23:00N 43°14' W 128°49'0 0.0 12.6
2015-Apr-20 22:00N 43°14' W 128°49'0 0.0 12.6
2015-Apr-20 21:00N 43°14' W 128°49'1 0.2 12.5
2015-Apr-20 15:00N 43°15' W 128°50'0 0.2 12.4
2015-Apr-20 14:00N 43°15' W 128°50'0 0.1 12.4
2015-Apr-20 12:00N 43°15' W 128°50'1 0.1 12.4
2015-Apr-20 05:00N 43°15' W 128°49'1 0.2 12.4
2015-Apr-20 01:00N 43°16' W 128°49'2 0.1 12.5
2015-Apr-19 13:00N 43°16' W 128°47'1 0.2 12.4
2015-Apr-19 07:00N 43°17' W 128°47'2 0.3 12.5
2015-Apr-19 00:00N 43°18' W 128°44'5 0.2 12.6
2015-Apr-18 02:00N 43°19' W 128°38'1 0.1 12.8
2015-Apr-17 18:00N 43°19' W 128°38'1 0.1 12.6
2015-Apr-17 13:00N 43°19' W 128°38'1 1.0 12.5
2015-Apr-17 12:00N 43°19' W 128°37'2 1.6 12.5
2015-Apr-17 11:00N 43°21' W 128°35'1 0.1 12.5
2015-Apr-17 06:00N 43°21' W 128°35'1 0.2 12.6
2015-Apr-17 00:00N 43°20' W 128°34'0 0.0 12.8
2015-Apr-16 23:00N 43°20' W 128°34'0 0.0 12.8
2015-Apr-16 22:00N 43°20' W 128°34'1 0.6 12.8
2015-Apr-16 21:00N 43°20' W 128°34'1 1.1 12.7
2015-Apr-16 20:00N 43°21' W 128°34'1 0.2 12.6
2015-Apr-16 15:00N 43°22' W 128°33'0 0.2 12.4
2015-Apr-16 14:00N 43°21' W 128°33'1 0.3 12.4
2015-Apr-16 11:00N 43°20' W 128°32'0 0.0 12.5
2015-Apr-16 10:00N 43°20' W 128°32'2 0.3 12.5
2015-Apr-16 04:00N 43°21' W 128°30'1 0.5 12.8
2015-Apr-16 02:00N 43°21' W 128°29'0 0.2 13.3
2015-Apr-16 00:00N 43°21' W 128°29'0 0.5 13.8
2015-Apr-15 23:00N 43°22' W 128°28'1 0.2 14.3
2015-Apr-15 18:00N 43°23' W 128°28'1 0.2 12.8
2015-Apr-15 14:00N 43°22' W 128°28'1 1.2 12.3
2015-Apr-15 13:00N 43°21' W 128°26'0 0.0 12.3
2015-Apr-15 12:00N 43°21' W 128°26'2 0.3 12.3
2015-Apr-15 05:00N 43°23' W 128°24'1 0.2 12.3
2015-Apr-15 02:00N 43°23' W 128°23'   12.4
Track history (hours):
 
Tides and Currents Weather Stations Pressure Air Temp Water Temp Dewpoint Dewpoint Depression Visibility Wind Speed Wind Dir Waves Ship Positions

Drifting buoy 46562

Last reported at 2015-Apr-25 00:00 UTC. Time now 2015-Apr-25 08:46 UTC.
Position N 43°07' W 128°25'.

Water temperature 12.8 ° C

Date/timePositionNaut miles runAvg speedWind from/ knotsBaromVisibWave heightAir tempDewpointWater temp
2015-Apr-25 00:00N 43°07' W 128°25'1 0.7 12.8
2015-Apr-24 22:00N 43°07' W 128°26'1 0.2 12.7
2015-Apr-24 15:00N 43°07' W 128°28'0 0.5 12.5
2015-Apr-24 14:00N 43°07' W 128°28'4 0.3 12.5
2015-Apr-23 23:00N 43°08' W 128°34'3 0.5 12.6
2015-Apr-23 17:00N 43°10' W 128°37'0 0.0 12.4
2015-Apr-23 15:00N 43°10' W 128°37'2 0.4 12.4
2015-Apr-23 10:00N 43°10' W 128°40'1 0.2 12.4
2015-Apr-23 04:00N 43°10' W 128°41'0 0.2 12.5
2015-Apr-23 02:00N 43°10' W 128°42'0 0.5 12.5
2015-Apr-23 01:00N 43°10' W 128°42'0 0.1 12.5
2015-Apr-23 00:00N 43°10' W 128°42'3 0.4 12.5
2015-Apr-22 18:00N 43°10' W 128°45'0 0.0 12.4
2015-Apr-22 16:00N 43°10' W 128°45'1 0.4 12.4
2015-Apr-22 14:00N 43°11' W 128°45'1 0.3 12.4
2015-Apr-22 10:00N 43°11' W 128°47'1 1.0 12.4
2015-Apr-22 09:00N 43°11' W 128°46'1 0.2 12.4
2015-Apr-22 04:00N 43°11' W 128°47'0 0.1 12.4
2015-Apr-22 02:00N 43°11' W 128°47'1 0.6 12.5
2015-Apr-22 01:00N 43°11' W 128°48'0 0.0 12.5
2015-Apr-21 23:00N 43°11' W 128°48'1 0.2 12.5
2015-Apr-21 20:00N 43°12' W 128°48'0 0.2 12.5
2015-Apr-21 18:00N 43°12' W 128°49'2 0.6 12.5
2015-Apr-21 15:00N 43°13' W 128°47'2 0.4 12.5
2015-Apr-21 11:00N 43°14' W 128°48'1 1.4 12.5
2015-Apr-21 10:00N 43°13' W 128°49'1 0.2 12.5
2015-Apr-21 06:00N 43°14' W 128°48'1 0.6 12.5
2015-Apr-21 05:00N 43°14' W 128°49'0 0.0 12.5
2015-Apr-20 23:00N 43°14' W 128°49'0 0.0 12.6
2015-Apr-20 22:00N 43°14' W 128°49'0 0.0 12.6
2015-Apr-20 21:00N 43°14' W 128°49'1 0.2 12.5
2015-Apr-20 15:00N 43°15' W 128°50'0 0.2 12.4
2015-Apr-20 14:00N 43°15' W 128°50'0 0.1 12.4
2015-Apr-20 12:00N 43°15' W 128°50'1 0.1 12.4
2015-Apr-20 05:00N 43°15' W 128°49'1 0.2 12.4
2015-Apr-20 01:00N 43°16' W 128°49'2 0.1 12.5
2015-Apr-19 13:00N 43°16' W 128°47'1 0.2 12.4
2015-Apr-19 07:00N 43°17' W 128°47'2 0.3 12.5
2015-Apr-19 00:00N 43°18' W 128°44'5 0.2 12.6
2015-Apr-18 02:00N 43°19' W 128°38'1 0.1 12.8
2015-Apr-17 18:00N 43°19' W 128°38'1 0.1 12.6
2015-Apr-17 13:00N 43°19' W 128°38'1 1.0 12.5
2015-Apr-17 12:00N 43°19' W 128°37'2 1.6 12.5
2015-Apr-17 11:00N 43°21' W 128°35'1 0.1 12.5
2015-Apr-17 06:00N 43°21' W 128°35'1 0.2 12.6
2015-Apr-17 00:00N 43°20' W 128°34'0 0.0 12.8
2015-Apr-16 23:00N 43°20' W 128°34'0 0.0 12.8
2015-Apr-16 22:00N 43°20' W 128°34'1 0.6 12.8
2015-Apr-16 21:00N 43°20' W 128°34'1 1.1 12.7
2015-Apr-16 20:00N 43°21' W 128°34'1 0.2 12.6
2015-Apr-16 15:00N 43°22' W 128°33'0 0.2 12.4
2015-Apr-16 14:00N 43°21' W 128°33'1 0.3 12.4
2015-Apr-16 11:00N 43°20' W 128°32'0 0.0 12.5
2015-Apr-16 10:00N 43°20' W 128°32'2 0.3 12.5
2015-Apr-16 04:00N 43°21' W 128°30'1 0.5 12.8
2015-Apr-16 02:00N 43°21' W 128°29'0 0.2 13.3
2015-Apr-16 00:00N 43°21' W 128°29'0 0.5 13.8
2015-Apr-15 23:00N 43°22' W 128°28'1 0.2 14.3
2015-Apr-15 18:00N 43°23' W 128°28'1 0.2 12.8
2015-Apr-15 14:00N 43°22' W 128°28'1 1.2 12.3
2015-Apr-15 13:00N 43°21' W 128°26'0 0.0 12.3
2015-Apr-15 12:00N 43°21' W 128°26'2 0.3 12.3
2015-Apr-15 05:00N 43°23' W 128°24'1 0.2 12.3
2015-Apr-15 02:00N 43°23' W 128°23'   12.4

Dump ship's entire track history